Pagrindinis puslapis
METAR-TAF:

METAR-TAF

Oro uostai :

Skaka, Saudo Arabija

platuma: 29-47N, ilguma: 040-06E, Aukštis: 689 m

Dabartinis oras

Ataskaita buvo paskelbta 59 minutes, ne 10:00 UTC
Vėjas 6 kt iš Pietryčių
Temperatūra 36°C
Drėgmė 14%
Slėgis 1021 hPa
Matomumas 10 km arba daugiau
Su prošvaistėmis ne aukštis 4000 ft

METAR: OESK 141000Z 14006KT 9999 BKN040 36/04 Q1021

Laikas: 13:59 (10:59 UTC)

Prognozė

Ataskaita buvo paskelbta 11 valandos ir 59 minutes, ne 23:00 UTC
Prognozė galioja nuo 14 metu 00 UTC su 15 metu 06 UTC
Vėjas 3 kt nuo kintamojo kryptimis
Matomumas 10 km arba daugiau
Mažai debesys ne aukštis 4000 ft
Tapsmas
nuo 14 metu 06 UTC su 14 metu 08 UTC
Vėjas 10 kt iš Rytų/Šiaurės Rytų

TAF: OESK 132300Z 1400/1506 VRB03KT 9999 FEW040 BECMG 1406/1408 06010KT

Orai ataskaitas ir orų prognozės (METAR, TAF).

turimą stotys yra geltonos ir raudonos taškus žemėlapyje.

Perkelti pele per norėdami pamatyti stoties vardą.

Tada spustelėkite, norėdami matyti oro stebėjimo ir prognozės.

Norėdami pakeisti žemėlapį: spustelėkite ant žalios mygtukų su juodo kryžiaus žemyn,; žalią mygtuką su brūkšneliu, jei norite nutolinti; arba žalių rodyklių gretimoms žemėlapius.


METAR-TAF: